TVF7090 LFPO-LFML
Flight info
| Callsign | TVF7090 |
|---|---|
| Flight time | 1h 3m |
| Altitude | 29000 |
| Route | LATRA DCT LAMUT DCT UTUVA DCT LERGA |
| Aircraft | B738/M-SDE2E3FGHIRWXY/LB1 |
Departure
| Time | 2026-05-04 15:25 |
|---|---|
| Airport | Paris-Orly Airport (LFPO) |
Arrival
| Time | 2026-05-04 16:28 |
|---|---|
| Airport | Marseille Provence Airport (LFML) |
| Time | Latitude | Longitude | Altitude | Speed | Heading |
|---|---|---|---|---|---|
| 2026-05-04 14:53 | 48.72438 | 2.36693 | 302 ft | 0 kts | 201° |
| 2026-05-04 15:14 | 48.72452 | 2.36701 | 305 ft | 4 kts | 201° |
| 2026-05-04 15:14 | 48.72472 | 2.36713 | 300 ft | 4 kts | 203° |
| 2026-05-04 15:14 | 48.72496 | 2.36730 | 303 ft | 4 kts | 211° |
| 2026-05-04 15:15 | 48.72517 | 2.36755 | 305 ft | 4 kts | 237° |
| 2026-05-04 15:15 | 48.72522 | 2.36771 | 302 ft | 1 kts | 255° |
| 2026-05-04 15:19 | 48.72512 | 2.36716 | 303 ft | 11 kts | 254° |
| 2026-05-04 15:20 | 48.72487 | 2.36579 | 302 ft | 13 kts | 254° |
| 2026-05-04 15:20 | 48.72462 | 2.36446 | 301 ft | 13 kts | 254° |
| 2026-05-04 15:20 | 48.72438 | 2.36316 | 302 ft | 13 kts | 255° |
| 2026-05-04 15:20 | 48.72416 | 2.36190 | 302 ft | 12 kts | 255° |
| 2026-05-04 15:21 | 48.72392 | 2.36067 | 299 ft | 12 kts | 251° |
| 2026-05-04 15:21 | 48.72367 | 2.35949 | 299 ft | 12 kts | 258° |
| 2026-05-04 15:21 | 48.72328 | 2.35717 | 300 ft | 11 kts | 253° |
| 2026-05-04 15:22 | 48.72290 | 2.35622 | 298 ft | 11 kts | 212° |
| 2026-05-04 15:22 | 48.72219 | 2.35606 | 298 ft | 10 kts | 171° |
| 2026-05-04 15:22 | 48.72085 | 2.35669 | 300 ft | 10 kts | 150° |
| 2026-05-04 15:23 | 48.72037 | 2.35740 | 299 ft | 10 kts | 126° |
| 2026-05-04 15:23 | 48.72001 | 2.35826 | 300 ft | 10 kts | 118° |
| 2026-05-04 15:23 | 48.71973 | 2.35917 | 301 ft | 10 kts | 112° |
| 2026-05-04 15:23 | 48.71970 | 2.36014 | 299 ft | 9 kts | 75° |
| 2026-05-04 15:24 | 48.72082 | 2.36615 | 301 ft | 85 kts | 74° |
| 2026-05-04 15:24 | 48.72583 | 2.39439 | 673 ft | 166 kts | 76° |
| 2026-05-04 15:25 | 48.72888 | 2.41073 | 1745 ft | 163 kts | 74° |
| 2026-05-04 15:25 | 48.73209 | 2.42815 | 2533 ft | 183 kts | 74° |
| 2026-05-04 15:25 | 48.73575 | 2.44799 | 3064 ft | 202 kts | 74° |
| 2026-05-04 15:26 | 48.74177 | 2.49007 | 4334 ft | 211 kts | 88° |
| 2026-05-04 15:26 | 48.74193 | 2.51351 | 4613 ft | 234 kts | 88° |
| 2026-05-04 15:26 | 48.74269 | 2.56498 | 5584 ft | 265 kts | 99° |
| 2026-05-04 15:27 | 48.73459 | 2.59062 | 6161 ft | 277 kts | 134° |
| 2026-05-04 15:27 | 48.69948 | 2.61037 | 8207 ft | 270 kts | 170° |
| 2026-05-04 15:28 | 48.66175 | 2.62114 | 9778 ft | 282 kts | 168° |
| 2026-05-04 15:28 | 48.64224 | 2.62421 | 10501 ft | 290 kts | 186° |
| 2026-05-04 15:28 | 48.60196 | 2.59874 | 10914 ft | 340 kts | 207° |
| 2026-05-04 15:29 | 48.58045 | 2.58155 | 11227 ft | 357 kts | 207° |
| 2026-05-04 15:30 | 48.48985 | 2.51058 | 14209 ft | 374 kts | 206° |
| 2026-05-04 15:30 | 48.41733 | 2.46590 | 16341 ft | 380 kts | 195° |
| 2026-05-04 15:31 | 48.36602 | 2.44475 | 17726 ft | 385 kts | 196° |
| 2026-05-04 15:31 | 48.34055 | 2.43353 | 18366 ft | 388 kts | 197° |
| 2026-05-04 15:32 | 48.26081 | 2.42109 | 20123 ft | 397 kts | 164° |
| 2026-05-04 15:32 | 48.20859 | 2.44914 | 21245 ft | 402 kts | 161° |
| 2026-05-04 15:33 | 48.15579 | 2.47830 | 22300 ft | 407 kts | 162° |
| 2026-05-04 15:34 | 48.07507 | 2.52114 | 23787 ft | 414 kts | 163° |
| 2026-05-04 15:34 | 48.04778 | 2.53491 | 24204 ft | 415 kts | 164° |
| 2026-05-04 15:34 | 47.99267 | 2.56189 | 25070 ft | 418 kts | 164° |
| 2026-05-04 15:35 | 47.93717 | 2.58893 | 25870 ft | 421 kts | 164° |
| 2026-05-04 15:35 | 47.90929 | 2.60256 | 26353 ft | 420 kts | 165° |
| 2026-05-04 15:35 | 47.88168 | 2.61609 | 26959 ft | 416 kts | 165° |
| 2026-05-04 15:36 | 47.82712 | 2.64284 | 28153 ft | 410 kts | 165° |
| 2026-05-04 15:36 | 47.80002 | 2.65609 | 28675 ft | 409 kts | 165° |
| 2026-05-04 15:36 | 47.77297 | 2.66931 | 28938 ft | 411 kts | 165° |
| 2026-05-04 15:37 | 47.71881 | 2.69572 | 28936 ft | 408 kts | 165° |
| 2026-05-04 15:37 | 47.66482 | 2.72199 | 28947 ft | 409 kts | 165° |
| 2026-05-04 15:38 | 47.61101 | 2.74811 | 28944 ft | 410 kts | 165° |
| 2026-05-04 15:38 | 47.55675 | 2.77441 | 28951 ft | 411 kts | 165° |
| 2026-05-04 15:39 | 47.50234 | 2.80071 | 28937 ft | 413 kts | 165° |
| 2026-05-04 15:40 | 47.42943 | 2.83590 | 28932 ft | 410 kts | 165° |
| 2026-05-04 15:40 | 47.37532 | 2.86194 | 28931 ft | 408 kts | 165° |
| 2026-05-04 15:41 | 47.32176 | 2.88765 | 28948 ft | 407 kts | 165° |
| 2026-05-04 15:41 | 47.26745 | 2.91366 | 28916 ft | 408 kts | 165° |
| 2026-05-04 15:42 | 47.21390 | 2.93927 | 28922 ft | 407 kts | 165° |
| 2026-05-04 15:42 | 47.16003 | 2.96497 | 28918 ft | 407 kts | 165° |
| 2026-05-04 15:43 | 47.10616 | 2.99045 | 28918 ft | 407 kts | 166° |
| 2026-05-04 15:43 | 47.05171 | 3.01326 | 28914 ft | 407 kts | 167° |
| 2026-05-04 15:44 | 46.99710 | 3.03517 | 28911 ft | 407 kts | 167° |
| 2026-05-04 15:44 | 46.94248 | 3.05728 | 28913 ft | 407 kts | 167° |
| 2026-05-04 15:45 | 46.88783 | 3.07958 | 28917 ft | 408 kts | 167° |
| 2026-05-04 15:45 | 46.83318 | 3.10191 | 28918 ft | 408 kts | 167° |
| 2026-05-04 15:46 | 46.77854 | 3.12422 | 28922 ft | 408 kts | 167° |
| 2026-05-04 15:46 | 46.72393 | 3.14646 | 28931 ft | 407 kts | 167° |
| 2026-05-04 15:47 | 46.66972 | 3.16849 | 28931 ft | 407 kts | 167° |
| 2026-05-04 15:47 | 46.61489 | 3.19072 | 28930 ft | 406 kts | 167° |
| 2026-05-04 15:48 | 46.56039 | 3.21277 | 28931 ft | 406 kts | 167° |
| 2026-05-04 15:48 | 46.47897 | 3.24563 | 28931 ft | 407 kts | 167° |
| 2026-05-04 15:49 | 46.42441 | 3.26759 | 28926 ft | 407 kts | 167° |
| 2026-05-04 15:49 | 46.36979 | 3.28953 | 28921 ft | 408 kts | 167° |
| 2026-05-04 15:50 | 46.31498 | 3.31150 | 28914 ft | 409 kts | 167° |
| 2026-05-04 15:50 | 46.26008 | 3.33346 | 28912 ft | 410 kts | 167° |
| 2026-05-04 15:51 | 46.20499 | 3.35545 | 28911 ft | 411 kts | 167° |
| 2026-05-04 15:51 | 46.14983 | 3.37743 | 28915 ft | 412 kts | 167° |
| 2026-05-04 15:52 | 46.09455 | 3.39941 | 28908 ft | 413 kts | 167° |
| 2026-05-04 15:52 | 46.03916 | 3.42138 | 28917 ft | 413 kts | 167° |
| 2026-05-04 15:53 | 45.98365 | 3.44336 | 28924 ft | 414 kts | 167° |
| 2026-05-04 15:53 | 45.92812 | 3.46531 | 28931 ft | 414 kts | 167° |
| 2026-05-04 15:54 | 45.87258 | 3.48722 | 28933 ft | 414 kts | 167° |
| 2026-05-04 15:54 | 45.81725 | 3.51013 | 28930 ft | 414 kts | 166° |
| 2026-05-04 15:55 | 45.76229 | 3.53411 | 28934 ft | 412 kts | 166° |
| 2026-05-04 15:55 | 45.70750 | 3.55791 | 28944 ft | 411 kts | 166° |
| 2026-05-04 15:56 | 45.65249 | 3.58158 | 28947 ft | 415 kts | 166° |
| 2026-05-04 15:56 | 45.59725 | 3.60526 | 28937 ft | 413 kts | 167° |
| 2026-05-04 15:57 | 45.54259 | 3.62865 | 28953 ft | 408 kts | 167° |
| 2026-05-04 15:57 | 45.48879 | 3.65160 | 28956 ft | 405 kts | 167° |
| 2026-05-04 15:58 | 45.43486 | 3.67456 | 28967 ft | 404 kts | 167° |
| 2026-05-04 15:58 | 45.38085 | 3.69751 | 28970 ft | 405 kts | 167° |
| 2026-05-04 15:59 | 45.32684 | 3.72043 | 28975 ft | 405 kts | 167° |
| 2026-05-04 15:59 | 45.27334 | 3.74613 | 28962 ft | 413 kts | 155° |
| 2026-05-04 16:00 | 45.24989 | 3.77024 | 28972 ft | 422 kts | 141° |
| 2026-05-04 16:00 | 45.23131 | 3.80309 | 29010 ft | 431 kts | 129° |
| 2026-05-04 16:00 | 45.19901 | 3.87511 | 28993 ft | 434 kts | 127° |
| 2026-05-04 16:01 | 45.16694 | 3.94774 | 28993 ft | 435 kts | 128° |
| 2026-05-04 16:01 | 45.13427 | 4.02001 | 28966 ft | 436 kts | 129° |
| 2026-05-04 16:02 | 45.10172 | 4.09130 | 28978 ft | 421 kts | 129° |
| 2026-05-04 16:03 | 45.05428 | 4.19467 | 28978 ft | 418 kts | 129° |
| 2026-05-04 16:03 | 45.03783 | 4.22857 | 28563 ft | 412 kts | 136° |
| 2026-05-04 16:03 | 45.01694 | 4.25456 | 28162 ft | 392 kts | 154° |
| 2026-05-04 16:03 | 44.99372 | 4.27397 | 27731 ft | 386 kts | 156° |
| 2026-05-04 16:04 | 44.97049 | 4.29261 | 27315 ft | 381 kts | 156° |
| 2026-05-04 16:04 | 44.92470 | 4.32927 | 26437 ft | 376 kts | 155° |
| 2026-05-04 16:04 | 44.90212 | 4.34755 | 26015 ft | 373 kts | 155° |
| 2026-05-04 16:05 | 44.87969 | 4.36581 | 25598 ft | 370 kts | 155° |
| 2026-05-04 16:05 | 44.85750 | 4.38392 | 25198 ft | 368 kts | 155° |
| 2026-05-04 16:05 | 44.81338 | 4.41998 | 24369 ft | 364 kts | 154° |
| 2026-05-04 16:06 | 44.79153 | 4.43783 | 23963 ft | 363 kts | 154° |
| 2026-05-04 16:06 | 44.73364 | 4.48504 | 22766 ft | 359 kts | 154° |
| 2026-05-04 16:07 | 44.70478 | 4.50854 | 22202 ft | 357 kts | 154° |
| 2026-05-04 16:07 | 44.63827 | 4.54870 | 21016 ft | 341 kts | 171° |
| 2026-05-04 16:08 | 44.61510 | 4.55560 | 20592 ft | 340 kts | 171° |
| 2026-05-04 16:08 | 44.54628 | 4.57616 | 19399 ft | 335 kts | 171° |
| 2026-05-04 16:09 | 44.50097 | 4.59012 | 18639 ft | 332 kts | 171° |
| 2026-05-04 16:09 | 44.45603 | 4.60409 | 17783 ft | 333 kts | 170° |
| 2026-05-04 16:10 | 44.41066 | 4.61820 | 16926 ft | 334 kts | 170° |
| 2026-05-04 16:11 | 44.34354 | 4.63906 | 15754 ft | 325 kts | 170° |
| 2026-05-04 16:11 | 44.32152 | 4.64589 | 15360 ft | 323 kts | 170° |
| 2026-05-04 16:12 | 44.25575 | 4.65797 | 14218 ft | 314 kts | 177° |
| 2026-05-04 16:12 | 44.19093 | 4.66664 | 13016 ft | 309 kts | 176° |
| 2026-05-04 16:13 | 44.14833 | 4.67278 | 12256 ft | 306 kts | 176° |
| 2026-05-04 16:13 | 44.10659 | 4.68278 | 11477 ft | 306 kts | 161° |
| 2026-05-04 16:14 | 44.06744 | 4.70555 | 10733 ft | 304 kts | 159° |
| 2026-05-04 16:14 | 44.02924 | 4.72738 | 10363 ft | 288 kts | 160° |
| 2026-05-04 16:15 | 43.97607 | 4.75724 | 9939 ft | 264 kts | 160° |
| 2026-05-04 16:16 | 43.94215 | 4.77628 | 9337 ft | 261 kts | 160° |
| 2026-05-04 16:16 | 43.89244 | 4.80416 | 8528 ft | 256 kts | 160° |
| 2026-05-04 16:17 | 43.85948 | 4.82264 | 7946 ft | 255 kts | 160° |
| 2026-05-04 16:18 | 43.81051 | 4.85004 | 7104 ft | 252 kts | 159° |
| 2026-05-04 16:18 | 43.79429 | 4.85912 | 6835 ft | 251 kts | 159° |
| 2026-05-04 16:19 | 43.74627 | 4.88611 | 6066 ft | 245 kts | 159° |
| 2026-05-04 16:19 | 43.71484 | 4.90373 | 5550 ft | 242 kts | 158° |
| 2026-05-04 16:20 | 43.67095 | 4.92873 | 5201 ft | 208 kts | 158° |
| 2026-05-04 16:20 | 43.64574 | 4.94311 | 5006 ft | 185 kts | 158° |
| 2026-05-04 16:21 | 43.61172 | 4.96494 | 4183 ft | 179 kts | 134° |
| 2026-05-04 16:22 | 43.59498 | 4.98970 | 4041 ft | 170 kts | 136° |
| 2026-05-04 16:22 | 43.57081 | 5.02381 | 3476 ft | 157 kts | 134° |
| 2026-05-04 16:23 | 43.54878 | 5.05518 | 2886 ft | 153 kts | 133° |
| 2026-05-04 16:24 | 43.52011 | 5.09603 | 2071 ft | 138 kts | 133° |
| 2026-05-04 16:25 | 43.50746 | 5.11408 | 1739 ft | 136 kts | 132° |
| 2026-05-04 16:26 | 43.48065 | 5.15228 | 1009 ft | 135 kts | 133° |
| 2026-05-04 16:26 | 43.45969 | 5.18153 | 367 ft | 148 kts | 130° |
| 2026-05-04 16:27 | 43.44570 | 5.20227 | 40 ft | 149 kts | 131° |
| 2026-05-04 16:28 | 43.43390 | 5.21903 | 47 ft | 30 kts | 134° |
| 2026-05-04 16:28 | 43.43433 | 5.22266 | 49 ft | 15 kts | 340° |
| 2026-05-04 16:29 | 43.43766 | 5.22024 | 42 ft | 13 kts | 7° |
| 2026-05-04 16:30 | 43.43866 | 5.22136 | 42 ft | 1 kts | 43° |
| 2026-05-04 16:31 | 43.43879 | 5.22152 | 42 ft | 2 kts | 35° |
| 2026-05-04 16:31 | 43.43955 | 5.22146 | 40 ft | 2 kts | 61° |
| 2026-05-04 16:32 | 43.43974 | 5.22209 | 38 ft | 0 kts | 62° |